createdAt,value
2019-03-19T00:01:59.563Z,15.95
2019-03-19T00:04:27.012Z,18.30
2019-03-19T00:06:54.455Z,15.45
2019-03-19T00:09:21.933Z,17.02
2019-03-19T00:11:49.544Z,21.57
2019-03-19T00:14:17.034Z,22.30
2019-03-19T00:16:44.492Z,23.32
2019-03-19T00:19:11.932Z,25.43
2019-03-19T00:21:39.351Z,23.65
2019-03-19T00:24:06.833Z,26.30
2019-03-19T00:26:34.299Z,26.65
2019-03-19T00:29:01.764Z,22.55
2019-03-19T00:31:29.194Z,23.02
2019-03-19T00:33:56.648Z,24.25
2019-03-19T00:36:24.096Z,22.65
2019-03-19T00:38:51.586Z,16.20
2019-03-19T00:41:19.057Z,16.25
2019-03-19T00:43:46.636Z,18.42
2019-03-19T00:46:14.087Z,23.02
2019-03-19T00:48:41.536Z,26.87
2019-03-19T00:51:08.976Z,24.18
2019-03-19T00:53:36.441Z,22.98
2019-03-19T00:56:03.894Z,20.82
2019-03-19T00:58:31.342Z,19.07
2019-03-19T01:00:58.791Z,19.67
2019-03-19T01:03:26.240Z,20.05
2019-03-19T01:05:53.666Z,25.48
2019-03-19T01:08:21.128Z,20.30
2019-03-19T01:10:48.633Z,22.82
2019-03-19T01:13:16.072Z,24.87
2019-03-19T01:15:43.516Z,20.82
2019-03-19T01:18:10.977Z,19.82
2019-03-19T01:20:38.412Z,21.75
2019-03-19T01:23:06.045Z,23.75
2019-03-19T01:25:35.154Z,19.10
2019-03-19T01:28:02.752Z,20.57
2019-03-19T01:30:30.208Z,17.85
2019-03-19T01:32:57.741Z,17.25
2019-03-19T01:35:25.211Z,20.97
2019-03-19T01:37:52.649Z,22.55
2019-03-19T01:40:20.072Z,22.13
2019-03-19T01:42:47.649Z,21.07
2019-03-19T01:45:15.081Z,20.50
2019-03-19T01:47:42.463Z,19.98
2019-03-19T01:50:10.109Z,21.70
2019-03-19T01:52:37.538Z,21.25
2019-03-19T01:55:05.561Z,18.60
2019-03-19T01:57:33.001Z,21.50
2019-03-19T02:00:00.439Z,25.32
2019-03-19T02:02:27.880Z,17.62
2019-03-19T02:04:55.312Z,26.27
2019-03-19T02:07:22.748Z,17.90
2019-03-19T02:09:50.191Z,21.12
2019-03-19T02:12:17.664Z,18.60
2019-03-19T02:14:45.112Z,21.90
2019-03-19T02:17:12.836Z,20.30
2019-03-19T02:19:40.511Z,15.05
2019-03-19T02:22:07.948Z,14.00
2019-03-19T02:24:35.401Z,22.25
2019-03-19T02:27:02.827Z,15.98
2019-03-19T02:29:30.295Z,15.35
2019-03-19T02:31:57.731Z,16.90
2019-03-19T02:34:25.161Z,26.15
2019-03-19T02:36:52.609Z,17.42
2019-03-19T02:39:20.041Z,20.27
2019-03-19T02:41:47.502Z,25.45
2019-03-19T02:44:14.935Z,19.48
2019-03-19T02:46:42.365Z,19.70
2019-03-19T02:49:09.822Z,18.07
2019-03-19T02:51:37.240Z,21.12
2019-03-19T02:54:04.680Z,19.80
2019-03-19T02:56:33.544Z,18.50
2019-03-19T02:59:01.298Z,21.15
2019-03-19T03:01:28.737Z,23.25
2019-03-19T03:03:56.190Z,14.30
2019-03-19T03:06:23.641Z,22.15
2019-03-19T03:08:51.068Z,22.02
2019-03-19T03:11:18.632Z,22.98
2019-03-19T03:13:46.080Z,13.88
2019-03-19T03:16:13.532Z,21.48
2019-03-19T03:18:40.963Z,21.77
2019-03-19T03:21:08.428Z,23.60
2019-03-19T03:23:35.875Z,19.52
2019-03-19T03:26:03.317Z,26.82
2019-03-19T03:28:30.761Z,18.82
2019-03-19T03:30:58.197Z,29.87
2019-03-19T03:33:25.655Z,28.23
2019-03-19T03:35:53.094Z,19.20
2019-03-19T03:38:20.533Z,22.95
2019-03-19T03:40:47.994Z,23.85
2019-03-19T03:43:15.729Z,24.23
2019-03-19T03:45:43.166Z,19.02
2019-03-19T03:48:10.629Z,21.02
2019-03-19T03:50:38.053Z,20.88
2019-03-19T03:53:05.456Z,15.15
2019-03-19T03:55:33.063Z,27.65
2019-03-19T03:58:00.496Z,18.75
2019-03-19T04:00:27.934Z,26.15
2019-03-19T04:02:55.381Z,18.90
2019-03-19T04:05:22.890Z,23.70
2019-03-19T04:07:50.353Z,21.02
2019-03-19T04:10:17.932Z,22.45
2019-03-19T04:12:45.369Z,25.10
2019-03-19T04:15:12.990Z,27.05
2019-03-19T04:17:40.453Z,22.17
2019-03-19T04:20:08.196Z,19.00
2019-03-19T04:22:35.649Z,23.00
2019-03-19T04:25:03.123Z,20.43
2019-03-19T04:27:30.569Z,24.87
2019-03-19T04:29:58.013Z,18.75
2019-03-19T04:32:25.444Z,22.87
2019-03-19T04:34:52.896Z,29.05
2019-03-19T04:37:20.316Z,23.40
2019-03-19T04:39:47.751Z,30.27
2019-03-19T04:42:15.208Z,23.50
2019-03-19T04:44:42.669Z,23.92
2019-03-19T04:47:10.100Z,25.08
2019-03-19T04:49:37.566Z,20.05
2019-03-19T04:52:05.005Z,23.25
2019-03-19T04:54:32.440Z,22.50
2019-03-19T04:56:59.905Z,21.50
2019-03-19T04:59:27.452Z,23.60
2019-03-19T05:01:54.882Z,20.30
2019-03-19T05:04:22.340Z,19.77
2019-03-19T05:06:49.898Z,25.72
2019-03-19T05:09:17.380Z,26.48
2019-03-19T05:11:44.819Z,26.85
2019-03-19T05:14:12.224Z,25.85
2019-03-19T05:16:39.683Z,22.65
2019-03-19T05:19:07.101Z,25.50
2019-03-19T05:21:34.528Z,18.12
2019-03-19T05:24:02.137Z,16.30
2019-03-19T05:26:29.572Z,31.30
2019-03-19T05:28:57.004Z,29.77
2019-03-19T05:31:24.472Z,24.90
2019-03-19T05:33:51.966Z,17.85
2019-03-19T05:36:19.449Z,28.35
2019-03-19T05:38:46.914Z,21.23
2019-03-19T05:41:16.557Z,19.67
2019-03-19T05:43:43.578Z,24.02
2019-03-19T05:46:11.024Z,21.48
2019-03-19T05:48:38.492Z,21.60
2019-03-19T05:51:05.929Z,22.37
2019-03-19T05:53:33.364Z,26.65
2019-03-19T05:56:00.834Z,20.80
2019-03-19T05:58:28.256Z,23.07
2019-03-19T06:00:55.725Z,23.05
2019-03-19T06:03:23.173Z,26.15
2019-03-19T06:05:50.629Z,27.70
2019-03-19T06:08:18.183Z,24.00
2019-03-19T06:10:47.543Z,25.95
2019-03-19T06:13:14.992Z,21.33
2019-03-19T06:15:42.426Z,25.05
2019-03-19T06:18:10.163Z,22.98
2019-03-19T06:20:37.556Z,28.62
2019-03-19T06:23:05.021Z,24.18
2019-03-19T06:25:32.373Z,24.50
2019-03-19T06:28:00.976Z,31.80
2019-03-19T06:30:28.558Z,26.35
2019-03-19T06:32:55.989Z,25.88
2019-03-19T06:35:23.433Z,27.02
2019-03-19T06:37:50.877Z,28.95
2019-03-19T06:40:18.496Z,23.05
2019-03-19T06:42:45.963Z,22.55
2019-03-19T06:45:13.644Z,30.30
2019-03-19T06:47:41.175Z,24.18
2019-03-19T06:50:09.891Z,20.52
2019-03-19T06:52:37.348Z,26.20
2019-03-19T06:55:05.620Z,25.00
2019-03-19T06:57:39.101Z,27.40
2019-03-19T07:00:03.025Z,26.00
2019-03-19T07:02:30.462Z,23.62
2019-03-19T07:04:57.902Z,23.25
2019-03-19T07:07:25.373Z,22.40
2019-03-19T07:09:52.800Z,21.68
2019-03-19T07:12:20.247Z,28.55
2019-03-19T07:14:47.681Z,24.82
2019-03-19T07:17:15.253Z,23.80
2019-03-19T07:19:42.704Z,22.65
2019-03-19T07:22:10.159Z,22.77
2019-03-19T07:24:37.593Z,24.67
2019-03-19T07:27:05.024Z,23.27
2019-03-19T07:29:32.488Z,27.73
2019-03-19T07:31:59.940Z,21.00
2019-03-19T07:34:27.369Z,26.35
2019-03-19T07:36:54.810Z,24.07
2019-03-19T07:39:22.261Z,30.68
2019-03-19T07:41:49.757Z,18.85
2019-03-19T07:44:17.197Z,19.62
2019-03-19T07:46:45.936Z,18.90
2019-03-19T07:49:13.683Z,30.05
2019-03-19T07:51:41.008Z,18.73
2019-03-19T07:54:08.463Z,20.20
2019-03-19T07:56:35.893Z,22.25
2019-03-19T07:59:03.653Z,18.37
2019-03-19T08:01:31.117Z,17.82
2019-03-19T08:03:58.760Z,16.45
2019-03-19T08:06:26.216Z,21.65
2019-03-19T08:08:53.702Z,22.13
2019-03-19T08:11:21.140Z,15.43
2019-03-19T08:13:48.896Z,27.90
2019-03-19T08:16:26.806Z,25.27
2019-03-19T08:18:45.605Z,22.52
2019-03-19T08:21:13.151Z,23.32
2019-03-19T08:23:40.589Z,21.30
2019-03-19T08:26:08.024Z,22.02
2019-03-19T08:28:35.471Z,16.05
2019-03-19T08:31:02.893Z,19.65
2019-03-19T08:33:30.336Z,20.90
2019-03-19T08:35:57.875Z,20.00
2019-03-19T08:38:26.524Z,19.48
2019-03-19T08:40:54.120Z,25.52
2019-03-19T08:43:21.564Z,23.95
2019-03-19T08:45:49.053Z,19.98
2019-03-19T08:48:16.485Z,22.73
2019-03-19T08:50:43.916Z,22.93
2019-03-19T08:53:11.383Z,24.67
2019-03-19T08:55:38.819Z,25.50
2019-03-19T08:58:06.276Z,25.27
2019-03-19T09:00:33.712Z,22.02
2019-03-19T09:03:01.145Z,17.32
2019-03-19T09:05:28.601Z,24.57
2019-03-19T09:07:56.056Z,22.02
2019-03-19T09:10:23.492Z,24.27
2019-03-19T09:12:50.931Z,20.68
2019-03-19T09:15:18.480Z,28.27
2019-03-19T09:17:45.930Z,23.05
2019-03-19T09:20:13.384Z,22.27
2019-03-19T09:22:40.922Z,20.82
2019-03-19T09:25:09.263Z,19.60
2019-03-19T09:27:36.968Z,24.12
2019-03-19T09:30:06.344Z,17.70
2019-03-19T09:32:33.796Z,16.67
2019-03-19T09:35:01.219Z,19.87
2019-03-19T09:37:28.650Z,21.00
2019-03-19T09:39:56.108Z,16.15
2019-03-19T09:42:23.546Z,13.18
2019-03-19T09:44:58.427Z,17.10
2019-03-19T09:47:20.243Z,20.88
2019-03-19T09:49:47.826Z,14.03
2019-03-19T09:52:15.177Z,14.30
2019-03-19T09:54:42.616Z,11.55
2019-03-19T09:57:10.086Z,22.98
2019-03-19T09:59:37.530Z,19.57
2019-03-19T10:02:04.973Z,16.73
2019-03-19T10:04:32.445Z,17.37
2019-03-19T10:07:06.077Z,19.00
2019-03-19T10:09:29.111Z,19.55
2019-03-19T10:11:56.558Z,19.73
2019-03-19T10:14:23.987Z,19.23
2019-03-19T10:16:51.447Z,18.62
2019-03-19T10:19:18.995Z,16.87
2019-03-19T10:21:46.416Z,14.98
2019-03-19T10:24:13.847Z,11.38
2019-03-19T10:26:41.290Z,13.60
2019-03-19T10:29:08.719Z,15.03
2019-03-19T10:31:36.150Z,14.15
2019-03-19T10:34:03.710Z,11.43
2019-03-19T10:36:31.113Z,16.40
2019-03-19T10:38:58.547Z,12.40
2019-03-19T10:41:25.984Z,13.68
2019-03-19T10:43:53.428Z,12.03
2019-03-19T10:46:20.896Z,10.08
2019-03-19T10:48:48.324Z,12.70
2019-03-19T10:51:15.756Z,16.25
2019-03-19T10:53:43.184Z,17.70
2019-03-19T10:56:10.671Z,16.82
2019-03-19T10:58:38.097Z,9.08
2019-03-19T11:01:05.544Z,12.75
2019-03-19T11:03:32.980Z,17.77
2019-03-19T11:06:00.434Z,14.23
2019-03-19T11:08:27.880Z,13.38
2019-03-19T11:10:55.348Z,13.05
2019-03-19T11:13:22.709Z,15.15
2019-03-19T11:15:50.145Z,16.52
2019-03-19T11:18:17.806Z,10.70
2019-03-19T11:20:45.613Z,16.80
2019-03-19T11:23:13.152Z,13.83
2019-03-19T11:25:40.592Z,11.57
2019-03-19T11:28:08.049Z,11.25
2019-03-19T11:30:35.530Z,10.18
2019-03-19T11:33:03.362Z,18.52
2019-03-19T11:35:30.801Z,13.32
2019-03-19T11:37:58.257Z,11.57
2019-03-19T11:40:26.313Z,8.63
2019-03-19T11:42:53.988Z,10.45
2019-03-19T11:45:21.440Z,12.63
2019-03-19T11:47:48.984Z,12.20
2019-03-19T11:50:18.505Z,13.95
2019-03-19T11:52:45.972Z,8.13
2019-03-19T11:55:13.637Z,13.00
2019-03-19T11:57:41.074Z,13.25
2019-03-19T12:00:15.992Z,14.30
2019-03-19T12:02:43.426Z,9.60
2019-03-19T12:05:12.671Z,13.38
2019-03-19T12:07:40.040Z,17.23
2019-03-19T12:10:07.713Z,9.95
2019-03-19T12:12:35.144Z,10.38
2019-03-19T12:15:02.732Z,11.28
2019-03-19T12:17:30.210Z,10.53
2019-03-19T12:19:57.620Z,12.28
2019-03-19T12:22:25.085Z,9.55
2019-03-19T12:24:52.526Z,11.70
2019-03-19T12:27:19.981Z,10.93
2019-03-19T12:29:47.436Z,12.93
2019-03-19T12:32:14.998Z,13.50
2019-03-19T12:34:42.479Z,9.30
2019-03-19T12:37:09.913Z,12.80
2019-03-19T12:39:37.353Z,7.53
2019-03-19T12:42:04.824Z,12.43
2019-03-19T12:44:32.273Z,9.98
2019-03-19T12:46:59.712Z,11.08
2019-03-19T12:49:27.182Z,11.55
2019-03-19T12:51:54.608Z,11.12
2019-03-19T12:54:22.092Z,14.60
2019-03-19T12:56:49.572Z,11.30
2019-03-19T12:59:20.465Z,7.75
2019-03-19T13:01:46.280Z,7.62
2019-03-19T13:04:13.709Z,8.50
2019-03-19T13:06:41.115Z,11.88
2019-03-19T13:09:08.555Z,7.92
2019-03-19T13:11:35.965Z,9.55
2019-03-19T13:14:03.386Z,13.22
2019-03-19T13:16:30.806Z,11.05
2019-03-19T13:18:58.228Z,11.50
2019-03-19T13:21:25.697Z,14.15
2019-03-19T13:23:53.129Z,8.18
2019-03-19T13:26:20.561Z,11.97
2019-03-19T13:28:48.056Z,6.97
2019-03-19T13:31:15.488Z,10.88
2019-03-19T13:33:42.942Z,6.83
2019-03-19T13:36:10.385Z,6.22
2019-03-19T13:38:37.833Z,11.38
2019-03-19T13:41:05.268Z,12.33
2019-03-19T13:43:32.753Z,8.75
2019-03-19T13:46:00.225Z,13.03
2019-03-19T13:48:27.669Z,9.85
2019-03-19T13:50:55.117Z,8.33
2019-03-19T13:53:22.562Z,9.38
2019-03-19T13:55:49.988Z,12.20
2019-03-19T13:58:17.547Z,10.65
2019-03-19T14:00:55.094Z,12.78
2019-03-19T14:03:14.129Z,12.73
2019-03-19T14:05:41.598Z,12.33
2019-03-19T14:08:09.047Z,8.28
2019-03-19T14:10:36.485Z,19.37
2019-03-19T14:13:04.145Z,12.50
2019-03-19T14:15:31.576Z,13.22
2019-03-19T14:17:59.024Z,11.15
2019-03-19T14:20:26.483Z,8.58
2019-03-19T14:22:53.926Z,11.00
2019-03-19T14:25:21.353Z,12.15
2019-03-19T14:27:48.800Z,8.28
2019-03-19T14:30:16.484Z,14.18
2019-03-19T14:32:43.959Z,11.83
2019-03-19T14:35:11.591Z,13.35
2019-03-19T14:37:39.007Z,11.28
2019-03-19T14:40:08.071Z,7.50
2019-03-19T14:42:35.492Z,11.55
2019-03-19T14:45:03.459Z,11.10
2019-03-19T14:47:30.918Z,7.10
2019-03-19T14:49:58.377Z,9.85
2019-03-19T14:52:25.850Z,9.83
2019-03-19T14:54:53.250Z,10.60
2019-03-19T14:57:20.712Z,13.45
2019-03-19T14:59:48.245Z,6.87
2019-03-19T15:02:15.680Z,7.30
2019-03-19T15:04:43.111Z,12.58
2019-03-19T15:07:10.564Z,12.35
2019-03-19T15:09:37.992Z,8.50
2019-03-19T15:12:05.420Z,8.80
2019-03-19T15:14:32.898Z,9.25
2019-03-19T15:17:04.903Z,11.70
2019-03-19T15:19:29.612Z,8.78
2019-03-19T15:21:57.048Z,12.15
2019-03-19T15:24:24.385Z,9.58
2019-03-19T15:26:51.841Z,9.00
2019-03-19T15:29:19.299Z,9.40
2019-03-19T15:31:46.740Z,15.60
2019-03-19T15:34:14.197Z,10.10
2019-03-19T15:36:41.628Z,11.12
2019-03-19T15:39:09.068Z,8.60
2019-03-19T15:41:36.540Z,10.78
2019-03-19T15:44:03.988Z,15.30
2019-03-19T15:46:31.420Z,10.18
2019-03-19T15:49:00.457Z,9.73
2019-03-19T15:51:28.064Z,8.58
2019-03-19T15:53:55.496Z,8.88
2019-03-19T15:56:22.960Z,12.28
2019-03-19T15:58:50.409Z,10.60
2019-03-19T16:01:17.941Z,12.20
2019-03-19T16:03:45.442Z,9.23
2019-03-19T16:06:12.864Z,8.20
2019-03-19T16:08:40.332Z,15.35
2019-03-19T16:11:07.764Z,16.57
2019-03-19T16:13:35.184Z,12.15
2019-03-19T16:16:02.688Z,9.10
2019-03-19T16:18:30.150Z,7.92
2019-03-19T16:20:57.737Z,12.30
2019-03-19T16:23:25.167Z,14.78
2019-03-19T16:25:52.614Z,17.77
2019-03-19T16:28:20.098Z,16.23
2019-03-19T16:30:47.633Z,19.12
2019-03-19T16:33:15.180Z,11.65
2019-03-19T16:35:42.622Z,13.38
2019-03-19T16:38:10.105Z,13.72
2019-03-19T16:40:37.554Z,16.17
2019-03-19T16:43:05.129Z,13.83
2019-03-19T16:45:32.580Z,13.13
2019-03-19T16:48:00.026Z,15.25
2019-03-19T16:50:27.488Z,11.88
2019-03-19T16:52:54.917Z,17.15
2019-03-19T16:55:22.370Z,11.88
2019-03-19T16:57:49.830Z,14.80
2019-03-19T17:00:17.283Z,14.83
2019-03-19T17:02:44.757Z,15.23
2019-03-19T17:05:13.100Z,13.45
2019-03-19T17:07:40.557Z,19.02
2019-03-19T17:10:09.556Z,10.93
2019-03-19T17:12:37.023Z,17.32
2019-03-19T17:15:04.992Z,13.15
2019-03-19T17:17:32.445Z,13.58
2019-03-19T17:20:00.469Z,12.68
2019-03-19T17:22:28.619Z,8.55
2019-03-19T17:24:56.512Z,17.07
2019-03-19T17:27:24.620Z,12.47
2019-03-19T17:29:52.435Z,8.30
2019-03-19T17:32:19.896Z,7.83
2019-03-19T17:34:47.342Z,14.03
2019-03-19T17:37:14.783Z,10.13
2019-03-19T17:39:42.257Z,8.25
2019-03-19T17:42:09.536Z,10.68
2019-03-19T17:44:36.817Z,8.63
2019-03-19T17:49:30.878Z,12.05
2019-03-19T17:54:25.191Z,15.20
2019-03-19T17:56:52.462Z,13.25
2019-03-19T18:01:46.861Z,15.45
2019-03-19T18:04:14.296Z,10.78
2019-03-19T18:06:43.235Z,13.38
2019-03-19T18:09:10.834Z,18.75
2019-03-19T18:11:38.256Z,12.95
2019-03-19T18:14:05.853Z,11.93
2019-03-19T18:16:33.130Z,10.68
2019-03-19T18:19:00.624Z,12.45
2019-03-19T18:21:28.046Z,10.63
2019-03-19T18:23:55.490Z,16.52
2019-03-19T18:26:22.940Z,13.95
2019-03-19T18:28:50.400Z,8.93
2019-03-19T18:31:17.884Z,12.73
2019-03-19T18:33:45.336Z,10.93
2019-03-19T18:36:14.112Z,11.97
2019-03-19T18:38:41.548Z,10.70
2019-03-19T18:41:09.019Z,12.93
2019-03-19T18:43:36.473Z,10.00
2019-03-19T18:46:03.915Z,9.78
2019-03-19T18:48:31.253Z,12.45
2019-03-19T18:50:58.725Z,10.38
2019-03-19T18:53:26.175Z,11.25
2019-03-19T18:55:53.613Z,12.78
2019-03-19T18:58:21.072Z,12.60
2019-03-19T19:00:48.657Z,14.15
2019-03-19T19:03:16.076Z,14.73
2019-03-19T19:05:43.610Z,13.18
2019-03-19T19:08:11.071Z,11.53
2019-03-19T19:10:38.540Z,16.95
2019-03-19T19:13:06.005Z,17.40
2019-03-19T19:15:33.460Z,13.22
2019-03-19T19:18:00.909Z,15.32
2019-03-19T19:20:28.376Z,11.10
2019-03-19T19:22:55.844Z,13.20
2019-03-19T19:25:23.304Z,13.98
2019-03-19T19:27:50.732Z,19.55
2019-03-19T19:30:18.534Z,17.87
2019-03-19T19:32:45.984Z,18.43
2019-03-19T19:35:13.396Z,16.62
2019-03-19T19:37:40.824Z,18.40
2019-03-19T19:40:10.451Z,18.27
2019-03-19T19:42:37.924Z,15.38
2019-03-19T19:45:05.513Z,14.50
2019-03-19T19:47:32.974Z,15.83
2019-03-19T19:50:00.476Z,18.27
2019-03-19T19:52:27.925Z,16.97
2019-03-19T19:54:55.372Z,15.80
2019-03-19T19:57:22.803Z,18.60
2019-03-19T19:59:50.252Z,14.50
2019-03-19T20:02:17.713Z,15.55
2019-03-19T20:04:45.164Z,14.30
2019-03-19T20:07:12.617Z,17.45
2019-03-19T20:09:40.066Z,14.75
2019-03-19T20:12:07.602Z,25.00
2019-03-19T20:14:35.087Z,11.30
2019-03-19T20:17:02.573Z,14.75
2019-03-19T20:19:30.049Z,18.70
2019-03-19T20:21:57.596Z,19.57
2019-03-19T20:24:25.046Z,15.63
2019-03-19T20:26:52.480Z,18.95
2019-03-19T20:29:20.087Z,19.25
2019-03-19T20:31:47.630Z,18.52
2019-03-19T20:34:15.214Z,18.62
2019-03-19T20:36:42.702Z,13.75
2019-03-19T20:39:10.139Z,14.78
2019-03-19T20:41:37.647Z,13.98
2019-03-19T20:44:05.088Z,12.82
2019-03-19T20:46:32.525Z,15.90
2019-03-19T20:49:00.002Z,19.12
2019-03-19T20:51:27.433Z,18.62
2019-03-19T20:53:54.992Z,12.07
2019-03-19T20:56:22.465Z,18.77
2019-03-19T20:58:49.907Z,21.52
2019-03-19T21:01:17.359Z,14.87
2019-03-19T21:03:44.786Z,16.17
2019-03-19T21:06:12.258Z,19.10
2019-03-19T21:08:39.785Z,18.52
2019-03-19T21:11:07.232Z,13.13
2019-03-19T21:13:34.669Z,21.37
2019-03-19T21:16:03.769Z,14.70
2019-03-19T21:18:31.218Z,11.55
2019-03-19T21:20:58.672Z,13.80
2019-03-19T21:23:26.107Z,13.78
2019-03-19T21:25:54.338Z,18.05
2019-03-19T21:28:22.204Z,13.98
2019-03-19T21:30:49.766Z,22.07
2019-03-19T21:33:17.196Z,19.35
2019-03-19T21:35:44.630Z,13.85
2019-03-19T21:38:12.210Z,19.52
2019-03-19T21:40:39.634Z,13.08
2019-03-19T21:43:07.085Z,16.77
2019-03-19T21:45:34.571Z,14.95
2019-03-19T21:48:01.997Z,23.15
2019-03-19T21:50:29.429Z,11.30
2019-03-19T21:52:56.992Z,15.72
2019-03-19T21:55:24.442Z,15.88
2019-03-19T21:57:51.877Z,17.20
2019-03-19T22:00:19.425Z,19.80
2019-03-19T22:02:46.891Z,18.30
2019-03-19T22:05:19.908Z,13.00
2019-03-19T22:07:47.339Z,13.43
2019-03-19T22:10:14.853Z,13.45
2019-03-19T22:12:42.282Z,17.05
2019-03-19T22:15:13.352Z,14.43
2019-03-19T22:17:40.692Z,15.95
2019-03-19T22:20:08.336Z,13.98
2019-03-19T22:22:35.797Z,14.87
2019-03-19T22:25:03.390Z,13.13
2019-03-19T22:27:30.794Z,16.45
2019-03-19T22:29:58.252Z,18.60
2019-03-19T22:32:25.705Z,20.65
2019-03-19T22:34:53.143Z,15.93
2019-03-19T22:37:20.602Z,13.60
2019-03-19T22:39:48.028Z,14.07
2019-03-19T22:42:15.469Z,19.50
2019-03-19T22:44:42.930Z,20.08
2019-03-19T22:47:10.388Z,15.15
2019-03-19T22:49:37.841Z,14.58
2019-03-19T22:52:05.281Z,18.00
2019-03-19T22:54:32.701Z,16.67
2019-03-19T22:57:00.164Z,15.08
2019-03-19T22:59:27.734Z,15.55
2019-03-19T23:01:55.153Z,20.20
2019-03-19T23:04:27.106Z,16.15
2019-03-19T23:06:51.962Z,16.30
2019-03-19T23:09:19.395Z,18.45
2019-03-19T23:11:46.850Z,13.35
2019-03-19T23:14:14.271Z,14.70
2019-03-19T23:16:41.733Z,15.88
2019-03-19T23:19:09.165Z,16.23
2019-03-19T23:21:36.606Z,21.33
2019-03-19T23:24:04.355Z,14.18
2019-03-19T23:26:31.777Z,17.17
2019-03-19T23:28:59.217Z,17.57
2019-03-19T23:31:26.653Z,19.90
2019-03-19T23:33:54.162Z,14.13
2019-03-19T23:36:21.625Z,15.23
2019-03-19T23:38:49.086Z,19.07
2019-03-19T23:41:16.524Z,17.45
2019-03-19T23:43:43.991Z,16.42
2019-03-19T23:46:11.437Z,18.02
2019-03-19T23:48:38.878Z,21.50
2019-03-19T23:51:06.444Z,24.20
2019-03-19T23:53:33.881Z,14.75
2019-03-19T23:56:01.303Z,19.20
2019-03-19T23:58:28.760Z,17.30
